Time;durP1;ratioP1;P1;durP2;ratioP2;P2;SDS_P1;SDS_P2;PMS_P1;PMS_P2;Temp;Humidity;BMP_temperature;BMP_pressure;BME280_temperature;BME280_humidity;BME280_pressure;Samples;Min_cycle;Max_cycle;Signal;HPM_P1;HPM_P2
2023/05/04 00:02:10;;;;;;;12.57;6.20;;;6.50;99.90;;;;;;4957296;28;20097;-64
2023/05/04 00:04:36;;;;;;;11.85;6.18;;;6.50;99.90;;;;;;4945396;28;20089;-65
2023/05/04 00:07:01;;;;;;;11.73;5.85;;;6.50;99.90;;;;;;4956220;28;20047;-64
2023/05/04 00:09:27;;;;;;;11.65;5.85;;;6.50;99.90;;;;;;4973000;28;20054;-65
2023/05/04 00:11:53;;;;;;;10.13;5.70;;;6.40;99.90;;;;;;4956819;28;20924;-65
2023/05/04 00:14:19;;;;;;;10.07;6.60;;;6.40;99.90;;;;;;4957628;28;20065;-65
2023/05/04 00:16:44;;;;;;;15.68;6.88;;;6.40;99.90;;;;;;4972920;28;20138;-66
2023/05/04 00:19:10;;;;;;;11.43;6.53;;;6.40;99.90;;;;;;4958635;28;20046;-66
2023/05/04 00:21:36;;;;;;;12.23;6.22;;;6.40;99.90;;;;;;4972002;28;20043;-65
2023/05/04 00:24:02;;;;;;;12.68;7.18;;;6.40;99.90;;;;;;4990218;28;20045;-66
2023/05/04 00:26:28;;;;;;;12.52;6.07;;;6.30;99.90;;;;;;4989421;28;20342;-65
2023/05/04 00:28:53;;;;;;;11.35;6.07;;;6.30;99.90;;;;;;4956720;28;20051;-66
2023/05/04 00:31:19;;;;;;;11.80;7.38;;;6.30;99.90;;;;;;4934637;28;20164;-66
2023/05/04 00:33:45;;;;;;;11.70;6.40;;;6.20;99.90;;;;;;4990078;28;20046;-66
2023/05/04 00:36:12;;;;;;;11.40;6.20;;;6.20;99.90;;;;;;4941041;28;21002;-66
2023/05/04 00:38:49;;;;;;;14.63;6.57;;;6.10;99.90;;;;;;4957500;28;20098;-66
2023/05/04 00:41:16;;;;;;;11.15;6.57;;;6.10;99.90;;;;;;4960927;28;20058;-65
2023/05/04 00:43:42;;;;;;;11.20;6.40;;;6.20;99.90;;;;;;4955616;28;20077;-66
2023/05/04 00:46:09;;;;;;;14.20;6.53;;;6.10;99.90;;;;;;4987525;28;20142;-65
2023/05/04 00:48:35;;;;;;;13.77;6.47;;;6.00;99.90;;;;;;4971210;28;20048;-65
2023/05/04 00:51:02;;;;;;;9.73;6.10;;;6.10;99.90;;;;;;4987046;28;20039;-65
2023/05/04 00:53:28;;;;;;;9.63;5.68;;;6.00;99.90;;;;;;4955028;28;20034;-65
2023/05/04 00:55:53;;;;;;;12.18;5.90;;;6.00;99.90;;;;;;4987595;28;20043;-65
2023/05/04 00:58:20;;;;;;;11.85;6.50;;;6.00;99.90;;;;;;4941548;28;20599;-66
2023/05/04 01:00:46;;;;;;;11.00;6.20;;;6.00;99.90;;;;;;4941875;28;20069;-66
2023/05/04 01:03:12;;;;;;;13.70;6.53;;;5.90;99.90;;;;;;4957670;28;20790;-66
2023/05/04 01:05:41;;;;;;;11.02;6.45;;;5.90;99.90;;;;;;4988654;28;20042;-65
2023/05/04 01:08:17;;;;;;;11.25;6.65;;;5.90;99.90;;;;;;4988082;28;20137;-65
2023/05/04 01:10:51;;;;;;;11.10;5.85;;;5.80;99.90;;;;;;4955757;28;20574;-65
2023/05/04 01:13:20;;;;;;;13.02;6.65;;;5.80;99.90;;;;;;4955507;28;20055;-66
2023/05/04 01:15:48;;;;;;;14.50;6.85;;;5.80;99.90;;;;;;4955903;28;20049;-66
2023/05/04 01:18:15;;;;;;;10.93;6.22;;;5.80;99.90;;;;;;4955855;28;20129;-65
2023/05/04 01:20:41;;;;;;;11.32;6.95;;;5.80;99.90;;;;;;4956599;28;20046;-66
2023/05/04 01:23:08;;;;;;;12.63;6.95;;;5.80;99.90;;;;;;4938725;28;20149;-66
2023/05/04 01:26:01;;;;;;;11.75;7.35;;;5.80;99.90;;;;;;4942427;28;20138;-65
2023/05/04 01:28:40;;;;;;;11.60;5.83;;;5.80;99.90;;;;;;4967527;28;20062;-66
2023/05/04 01:31:08;;;;;;;14.05;6.47;;;5.80;99.90;;;;;;4971704;28;20057;-66
2023/05/04 01:33:35;;;;;;;11.02;6.40;;;5.80;99.90;;;;;;4988303;28;20046;-66
2023/05/04 01:36:01;;;;;;;8.65;5.72;;;5.80;99.90;;;;;;4989469;28;20553;-66
2023/05/04 01:38:27;;;;;;;12.70;6.53;;;5.70;99.90;;;;;;4986316;28;20069;-65
2023/05/04 01:40:56;;;;;;;13.30;6.25;;;5.70;99.90;;;;;;4938817;28;20713;-65
2023/05/04 01:43:22;;;;;;;12.65;6.95;;;5.80;99.90;;;;;;4987239;28;20149;-66
2023/05/04 01:45:48;;;;;;;9.40;5.80;;;5.70;99.90;;;;;;4953847;28;20213;-66
2023/05/04 01:48:14;;;;;;;11.50;6.78;;;5.70;99.90;;;;;;4986573;28;20604;-65
2023/05/04 01:50:40;;;;;;;10.50;6.00;;;5.80;99.90;;;;;;4986914;28;20449;-65
2023/05/04 01:53:06;;;;;;;10.88;5.85;;;5.80;99.90;;;;;;4955942;28;20043;-66
2023/05/04 01:55:31;;;;;;;13.80;7.07;;;5.80;99.90;;;;;;4939257;28;20045;-65
2023/05/04 01:57:57;;;;;;;12.13;6.28;;;5.70;99.90;;;;;;4955071;28;20058;-65
2023/05/04 02:00:23;;;;;;;15.20;6.85;;;5.70;99.90;;;;;;4954383;28;20132;-68
2023/05/04 02:02:49;;;;;;;11.25;6.68;;;5.70;99.90;;;;;;4972482;28;20133;-65
2023/05/04 02:05:14;;;;;;;12.45;6.50;;;5.70;99.90;;;;;;4987464;28;20047;-65
2023/05/04 02:07:40;;;;;;;12.73;7.05;;;5.70;99.90;;;;;;4970992;28;20053;-67
2023/05/04 02:10:07;;;;;;;14.02;7.38;;;5.80;99.90;;;;;;4954608;28;20616;-66
2023/05/04 02:12:33;;;;;;;14.20;7.15;;;5.80;99.90;;;;;;4986421;28;20061;-65
2023/05/04 02:14:59;;;;;;;13.25;7.68;;;5.70;99.90;;;;;;4954025;28;20564;-66
2023/05/04 02:17:24;;;;;;;12.23;7.22;;;5.80;99.90;;;;;;4956085;28;20047;-65
2023/05/04 02:19:50;;;;;;;13.55;8.10;;;5.80;99.90;;;;;;4953603;28;20073;-65
2023/05/04 02:22:16;;;;;;;13.43;7.82;;;5.70;99.90;;;;;;4986479;28;20165;-66
2023/05/04 02:24:43;;;;;;;14.55;7.18;;;5.70;99.90;;;;;;4988600;28;20046;-65
2023/05/04 02:27:09;;;;;;;12.98;7.68;;;5.70;1.00;;;;;;4939256;28;20078;-65
2023/05/04 02:29:34;;;;;;;11.73;7.50;;;5.80;1.00;;;;;;4985644;28;20037;-66
2023/05/04 02:32:00;;;;;;;14.23;7.15;;;5.80;1.00;;;;;;4969724;28;20038;-66
2023/05/04 02:34:26;;;;;;;12.00;6.90;;;5.80;1.00;;;;;;4970558;28;20038;-66
2023/05/04 02:36:52;;;;;;;14.95;7.38;;;5.80;1.00;;;;;;4937943;28;20051;-65
2023/05/04 02:39:17;;;;;;;12.43;7.57;;;5.80;1.00;;;;;;4954531;28;20656;-65
2023/05/04 02:41:43;;;;;;;13.95;8.10;;;5.80;1.00;;;;;;4937431;28;20422;-65
2023/05/04 02:44:08;;;;;;;12.30;6.97;;;5.70;1.00;;;;;;4954447;28;20225;-67
2023/05/04 02:46:34;;;;;;;15.63;8.43;;;5.70;1.00;;;;;;4938931;28;20042;-65
2023/05/04 02:49:00;;;;;;;16.30;8.32;;;5.80;1.00;;;;;;4954289;28;20073;-66
2023/05/04 02:51:25;;;;;;;13.60;8.10;;;5.70;1.00;;;;;;4971667;28;20038;-65
2023/05/04 02:53:51;;;;;;;18.50;8.60;;;5.80;1.00;;;;;;4959609;28;20046;-65
2023/05/04 02:56:17;;;;;;;13.90;8.20;;;5.70;1.00;;;;;;4957745;28;20552;-66
2023/05/04 02:58:42;;;;;;;14.90;7.88;;;5.80;1.00;;;;;;4956815;28;20039;-65
2023/05/04 03:01:08;;;;;;;17.50;9.10;;;5.80;1.00;;;;;;4958745;28;20081;-65
2023/05/04 03:03:34;;;;;;;17.35;8.55;;;5.80;1.00;;;;;;4959920;28;20042;-66
2023/05/04 03:06:00;;;;;;;15.52;8.77;;;5.80;1.00;;;;;;4989289;28;20050;-65
2023/05/04 03:08:25;;;;;;;15.07;8.82;;;5.80;1.00;;;;;;4959395;28;20054;-65
2023/05/04 03:10:51;;;;;;;17.65;8.70;;;5.80;1.00;;;;;;4958604;28;20058;-66
2023/05/04 03:13:17;;;;;;;11.40;7.90;;;5.70;1.00;;;;;;4973226;28;20051;-65
2023/05/04 03:15:42;;;;;;;14.18;8.77;;;5.80;1.00;;;;;;4957390;28;20038;-66
2023/05/04 03:18:08;;;;;;;12.15;9.05;;;5.80;1.00;;;;;;4973161;28;20133;-65
2023/05/04 03:20:34;;;;;;;17.92;9.00;;;5.80;1.00;;;;;;4989462;28;20112;-65
2023/05/04 03:22:59;;;;;;;14.65;8.77;;;5.80;1.00;;;;;;4988605;28;20047;-65
2023/05/04 03:25:25;;;;;;;15.35;9.23;;;5.90;1.00;;;;;;4974125;28;20038;-66
2023/05/04 03:27:51;;;;;;;14.88;8.02;;;5.90;1.00;;;;;;4958159;28;20081;-65
2023/05/04 03:30:17;;;;;;;13.05;8.20;;;5.80;1.00;;;;;;4957427;28;20685;-65
2023/05/04 03:32:43;;;;;;;16.33;8.93;;;5.80;1.00;;;;;;4957668;28;20513;-66
2023/05/04 03:35:09;;;;;;;11.48;7.78;;;5.80;1.00;;;;;;4952434;28;20039;-65
2023/05/04 03:37:34;;;;;;;13.73;7.80;;;5.80;1.00;;;;;;4974153;28;20038;-66
2023/05/04 03:40:00;;;;;;;17.70;8.10;;;5.80;1.00;;;;;;4959495;28;20050;-66
2023/05/04 03:42:26;;;;;;;14.68;7.65;;;5.80;1.00;;;;;;4944502;28;20057;-66
2023/05/04 03:44:51;;;;;;;14.00;8.23;;;5.80;1.00;;;;;;4989459;28;20046;-65
2023/05/04 03:47:17;;;;;;;12.13;8.25;;;5.90;1.00;;;;;;4984690;28;20269;-65
2023/05/04 03:49:43;;;;;;;15.27;7.72;;;5.90;1.00;;;;;;4989874;28;20054;-65
2023/05/04 03:52:08;;;;;;;13.63;8.18;;;6.00;1.00;;;;;;4956452;28;20460;-65
2023/05/04 03:54:34;;;;;;;11.35;7.50;;;5.90;1.00;;;;;;4957911;28;20050;-65
2023/05/04 03:57:01;;;;;;;15.38;7.75;;;6.00;1.00;;;;;;4956918;28;20567;-66
2023/05/04 03:59:26;;;;;;;15.18;7.50;;;6.00;1.00;;;;;;4973817;28;20152;-64
2023/05/04 04:01:52;;;;;;;13.57;7.80;;;6.00;1.00;;;;;;4957714;28;20054;-64
2023/05/04 04:04:18;;;;;;;15.02;7.15;;;6.00;1.00;;;;;;4941962;28;20137;-66
2023/05/04 04:06:43;;;;;;;15.98;7.65;;;6.00;1.00;;;;;;4958349;28;20070;-66
2023/05/04 04:09:09;;;;;;;15.90;8.40;;;6.10;1.00;;;;;;4940858;28;20053;-65
2023/05/04 04:11:35;;;;;;;15.73;8.05;;;6.20;1.00;;;;;;4957441;28;20321;-66
2023/05/04 04:14:00;;;;;;;12.27;8.02;;;6.10;1.00;;;;;;4971872;28;20500;-66
2023/05/04 04:16:26;;;;;;;12.23;7.50;;;6.10;1.00;;;;;;4956816;28;20042;-65
2023/05/04 04:18:52;;;;;;;15.45;7.50;;;6.10;1.00;;;;;;4988456;28;20693;-66
2023/05/04 04:21:17;;;;;;;13.38;6.80;;;6.20;1.00;;;;;;4940319;28;20068;-66
2023/05/04 04:23:43;;;;;;;14.45;7.65;;;6.20;1.00;;;;;;4939544;28;20551;-64
2023/05/04 04:26:09;;;;;;;17.15;7.65;;;6.20;1.00;;;;;;4955203;28;20065;-64
2023/05/04 04:28:35;;;;;;;16.13;7.40;;;6.30;1.00;;;;;;4940770;28;20074;-64
2023/05/04 04:31:02;;;;;;;11.93;6.90;;;6.20;1.00;;;;;;4942000;28;20207;-65
2023/05/04 04:33:27;;;;;;;14.15;6.57;;;6.30;1.00;;;;;;4955227;28;20121;-65
2023/05/04 04:35:53;;;;;;;12.18;6.55;;;6.30;1.00;;;;;;4955985;28;20066;-66
2023/05/04 04:38:19;;;;;;;11.75;6.82;;;6.30;1.00;;;;;;4954938;28;20125;-65
2023/05/04 04:40:45;;;;;;;10.45;6.85;;;6.30;1.00;;;;;;4973521;28;20096;-66
2023/05/04 04:43:10;;;;;;;14.00;6.95;;;6.30;1.00;;;;;;4956782;28;20406;-65
2023/05/04 04:45:37;;;;;;;12.35;6.90;;;6.30;1.00;;;;;;4987239;28;20129;-66
2023/05/04 04:48:02;;;;;;;15.38;8.55;;;6.30;1.00;;;;;;4942300;28;20806;-66
2023/05/04 04:50:28;;;;;;;9.02;5.97;;;6.30;1.00;;;;;;4971577;28;20055;-65
2023/05/04 04:52:54;;;;;;;17.40;7.97;;;6.40;1.00;;;;;;4973252;28;20050;-65
2023/05/04 04:55:24;;;;;;;20.73;8.07;;;6.40;1.00;;;;;;4957191;28;20522;-65
2023/05/04 04:57:49;;;;;;;14.40;7.50;;;6.40;1.00;;;;;;4954705;28;20081;-65
2023/05/04 05:00:16;;;;;;;12.80;7.07;;;6.40;1.00;;;;;;4931627;28;20579;-65
2023/05/04 05:02:42;;;;;;;17.17;7.60;;;6.40;1.00;;;;;;4956093;28;20178;-65
2023/05/04 05:05:08;;;;;;;12.02;6.97;;;6.50;1.00;;;;;;4955697;28;20165;-65
2023/05/04 05:07:34;;;;;;;11.00;6.00;;;6.50;1.00;;;;;;4937088;28;20106;-65
2023/05/04 05:09:59;;;;;;;12.00;6.25;;;6.50;1.00;;;;;;4934998;28;20657;-66
2023/05/04 05:12:25;;;;;;;10.02;6.63;;;6.50;1.00;;;;;;4937585;28;20875;-66
2023/05/04 05:14:52;;;;;;;13.95;6.40;;;6.50;1.00;;;;;;4970457;28;20401;-65
2023/05/04 05:17:19;;;;;;;11.82;6.05;;;6.60;99.90;;;;;;4934796;28;20046;-65
2023/05/04 05:19:45;;;;;;;11.77;5.85;;;6.60;99.90;;;;;;4939419;28;20657;-65
2023/05/04 05:22:11;;;;;;;12.35;7.20;;;6.70;99.90;;;;;;4937642;28;20108;-65
2023/05/04 05:24:37;;;;;;;14.88;7.10;;;6.70;99.90;;;;;;4955813;28;20825;-67
2023/05/04 05:27:03;;;;;;;12.75;6.93;;;6.70;99.90;;;;;;4954561;28;20077;-66
2023/05/04 05:29:29;;;;;;;10.73;6.22;;;6.80;99.90;;;;;;4985671;28;20039;-66
2023/05/04 05:31:55;;;;;;;13.05;6.57;;;6.80;99.90;;;;;;4933180;28;20041;-65
2023/05/04 05:34:20;;;;;;;12.35;6.53;;;6.90;99.90;;;;;;4955502;28;20779;-66
2023/05/04 05:36:47;;;;;;;13.30;6.18;;;6.90;99.90;;;;;;4970383;28;20038;-66
2023/05/04 05:39:13;;;;;;;16.58;7.20;;;7.00;99.90;;;;;;4934109;28;20047;-66
2023/05/04 05:41:39;;;;;;;13.23;6.40;;;7.00;99.90;;;;;;4938689;28;20039;-65
2023/05/04 05:44:05;;;;;;;16.05;6.57;;;7.10;99.90;;;;;;4933221;28;20052;-66
2023/05/04 05:46:30;;;;;;;8.73;5.38;;;7.20;99.90;;;;;;4938787;28;20141;-65
2023/05/04 05:48:56;;;;;;;11.38;6.28;;;7.20;99.90;;;;;;4982657;28;20189;-64
2023/05/04 05:51:22;;;;;;;12.95;5.88;;;7.30;99.90;;;;;;4984425;28;20039;-64
2023/05/04 05:53:47;;;;;;;10.25;5.18;;;7.40;99.90;;;;;;4948485;28;20444;-64
2023/05/04 05:56:13;;;;;;;13.25;5.82;;;7.50;99.90;;;;;;4951853;28;20043;-64
2023/05/04 05:58:39;;;;;;;10.32;5.53;;;7.50;99.90;;;;;;4967731;28;20511;-65
2023/05/04 06:01:05;;;;;;;14.43;6.00;;;7.60;99.90;;;;;;4966332;28;20045;-66
2023/05/04 06:03:31;;;;;;;10.40;5.60;;;7.60;99.90;;;;;;4951417;28;20039;-65
2023/05/04 06:05:56;;;;;;;12.65;6.40;;;7.80;99.90;;;;;;4968156;28;20035;-64
2023/05/04 06:08:22;;;;;;;11.65;6.05;;;7.90;99.90;;;;;;5001113;28;20322;-66
2023/05/04 06:10:49;;;;;;;11.52;6.03;;;8.00;99.90;;;;;;4950299;28;20156;-66
2023/05/04 06:13:15;;;;;;;12.18;6.40;;;8.20;99.90;;;;;;4966145;28;20066;-65
2023/05/04 06:15:40;;;;;;;11.30;5.65;;;8.40;99.90;;;;;;4933008;28;20051;-66
2023/05/04 06:18:06;;;;;;;10.40;5.63;;;8.60;99.90;;;;;;4935198;28;20751;-66
2023/05/04 06:20:32;;;;;;;10.15;5.85;;;8.80;99.90;;;;;;4966819;28;20054;-66
2023/05/04 06:22:58;;;;;;;10.00;5.18;;;8.90;99.90;;;;;;4931980;28;20225;-65
2023/05/04 06:25:23;;;;;;;11.65;5.32;;;9.10;99.90;;;;;;4953223;28;20158;-67
2023/05/04 06:27:49;;;;;;;10.50;5.00;;;9.20;99.90;;;;;;4935227;28;20124;-65
2023/05/04 06:30:15;;;;;;;14.23;5.90;;;9.30;99.90;;;;;;4954851;28;20077;-65
2023/05/04 06:32:41;;;;;;;10.77;5.60;;;9.40;99.90;;;;;;4935490;28;20062;-66
2023/05/04 06:35:10;;;;;;;13.18;5.72;;;9.50;99.90;;;;;;4935329;28;20082;-67
2023/05/04 06:37:36;;;;;;;10.85;5.47;;;9.60;99.90;;;;;;4966394;28;20039;-66
2023/05/04 06:40:03;;;;;;;10.77;5.05;;;9.70;99.90;;;;;;4936938;28;20049;-66
2023/05/04 06:42:30;;;;;;;13.07;5.65;;;9.80;99.90;;;;;;4940133;28;20125;-65
2023/05/04 06:44:57;;;;;;;9.05;4.55;;;10.00;99.90;;;;;;4936042;28;20051;-65
2023/05/04 06:47:22;;;;;;;7.45;4.60;;;10.10;99.90;;;;;;4987679;28;20628;-66
2023/05/04 06:49:48;;;;;;;8.82;4.60;;;10.30;99.90;;;;;;4940735;28;20050;-66
2023/05/04 06:52:14;;;;;;;9.15;5.38;;;10.40;99.90;;;;;;4940407;28;20039;-66
2023/05/04 06:54:40;;;;;;;9.48;4.50;;;10.30;99.90;;;;;;4956311;28;21089;-66
2023/05/04 06:57:06;;;;;;;7.22;3.72;;;10.20;99.90;;;;;;4924073;28;20649;-66
2023/05/04 06:59:31;;;;;;;11.98;5.05;;;10.20;99.90;;;;;;4940636;28;20046;-65
2023/05/04 07:01:57;;;;;;;6.65;4.20;;;10.10;99.90;;;;;;4987224;28;20053;-64
2023/05/04 07:04:23;;;;;;;9.02;4.55;;;10.10;99.90;;;;;;4970758;28;20541;-66
2023/05/04 07:06:49;;;;;;;11.50;5.05;;;10.10;99.90;;;;;;4934292;28;20042;-65
2023/05/04 07:09:17;;;;;;;9.48;4.72;;;10.10;99.90;;;;;;4937603;28;20559;-65
2023/05/04 07:11:43;;;;;;;11.07;4.50;;;10.30;99.90;;;;;;4955894;28;20038;-65
2023/05/04 07:14:08;;;;;;;11.18;5.10;;;10.40;99.90;;;;;;4972948;28;20073;-64
2023/05/04 07:16:37;;;;;;;8.65;4.10;;;10.60;99.90;;;;;;4935157;28;20038;-65
2023/05/04 07:19:05;;;;;;;9.48;4.97;;;10.80;99.90;;;;;;4936259;28;20261;-65
2023/05/04 07:21:31;;;;;;;9.02;5.38;;;10.90;99.90;;;;;;4954601;28;20046;-65
2023/05/04 07:23:57;;;;;;;8.02;3.70;;;11.10;99.90;;;;;;4934879;28;20038;-65
2023/05/04 07:26:23;;;;;;;10.75;4.68;;;11.20;99.90;;;;;;4940835;28;20096;-65
2023/05/04 07:28:49;;;;;;;9.05;3.97;;;11.20;82.00;;;;;;4971823;28;20049;-66
2023/05/04 07:31:15;;;;;;;10.48;4.18;;;11.20;83.70;;;;;;4938495;28;20138;-66
2023/05/04 07:33:41;;;;;;;7.03;3.45;;;11.20;43.40;;;;;;4934872;28;20112;-66
2023/05/04 07:36:07;;;;;;;7.80;3.63;;;11.10;25.90;;;;;;4955138;28;20050;-65
2023/05/04 07:38:33;;;;;;;11.88;4.70;;;11.20;9.00;;;;;;4955733;28;20355;-66
2023/05/04 07:40:59;;;;;;;10.57;4.53;;;11.20;64.60;;;;;;4969924;28;20045;-65
2023/05/04 07:43:25;;;;;;;7.57;4.13;;;11.30;84.60;;;;;;4932804;28;20054;-65
2023/05/04 07:45:52;;;;;;;12.77;5.05;;;11.50;47.40;;;;;;4938246;28;20062;-65
2023/05/04 07:48:18;;;;;;;7.78;4.15;;;11.70;72.10;;;;;;4954907;28;20065;-64
2023/05/04 07:50:45;;;;;;;11.32;4.65;;;11.90;66.50;;;;;;4956813;28;20057;-64
2023/05/04 07:53:11;;;;;;;9.07;4.45;;;12.00;58.80;;;;;;4972469;28;20307;-64
2023/05/04 07:55:37;;;;;;;8.30;3.78;;;12.10;50.30;;;;;;4958009;28;21171;-63
2023/05/04 07:58:03;;;;;;;9.57;3.67;;;12.20;1.00;;;;;;4934312;28;20784;-63
2023/05/04 08:00:29;;;;;;;9.15;4.47;;;12.20;1.00;;;;;;4953853;28;20315;-65
2023/05/04 08:02:54;;;;;;;9.98;4.65;;;12.20;1.00;;;;;;4986191;28;20038;-64
2023/05/04 08:05:20;;;;;;;11.00;4.55;;;12.20;1.00;;;;;;4940321;28;20290;-65
2023/05/04 08:07:47;;;;;;;8.90;4.63;;;12.10;1.00;;;;;;4970306;28;20548;-64
2023/05/04 08:10:13;;;;;;;9.70;4.70;;;12.20;1.00;;;;;;4985558;28;20618;-64
2023/05/04 08:12:39;;;;;;;10.75;4.90;;;12.30;25.50;;;;;;4949451;28;20042;-65
2023/05/04 08:15:06;;;;;;;10.80;4.45;;;12.40;18.00;;;;;;4954518;28;20098;-64
2023/05/04 08:17:33;;;;;;;8.95;4.15;;;12.70;1.00;;;;;;4936939;28;20667;-64
2023/05/04 08:20:00;;;;;;;9.48;5.47;;;12.80;1.00;;;;;;4969041;28;20137;-65
2023/05/04 08:22:26;;;;;;;11.77;5.00;;;12.80;1.00;;;;;;4938148;28;20050;-64
2023/05/04 08:24:52;;;;;;;9.40;4.65;;;12.70;1.00;;;;;;4980855;28;20050;-65
2023/05/04 08:27:17;;;;;;;10.90;4.78;;;13.00;1.00;;;;;;4937219;28;20050;-65
2023/05/04 08:29:43;;;;;;;6.50;3.95;;;13.10;1.00;;;;;;4934001;28;20138;-66
2023/05/04 08:32:09;;;;;;;8.60;4.68;;;13.10;1.00;;;;;;4968914;28;20271;-67
2023/05/04 08:34:36;;;;;;;10.43;4.57;;;13.20;1.00;;;;;;4969365;28;20207;-66
2023/05/04 08:37:02;;;;;;;10.00;5.00;;;13.10;1.00;;;;;;4937983;28;20035;-66
2023/05/04 08:39:28;;;;;;;10.68;4.70;;;13.30;1.00;;;;;;4953008;28;20209;-67
2023/05/04 08:41:53;;;;;;;7.20;3.97;;;13.60;99.90;;;;;;4949381;28;20506;-66
2023/05/04 08:44:21;;;;;;;9.65;4.30;;;13.70;99.90;;;;;;4936484;28;20149;-67
2023/05/04 08:46:52;;;;;;;7.43;3.88;;;13.60;99.90;;;;;;4957527;28;20061;-65
2023/05/04 08:49:22;;;;;;;10.98;4.82;;;13.70;99.90;;;;;;4985722;28;20425;-66
2023/05/04 08:51:49;;;;;;;9.35;4.22;;;13.60;99.90;;;;;;4986002;28;20556;-66
2023/05/04 08:54:16;;;;;;;7.88;4.80;;;13.60;99.90;;;;;;4984905;28;20190;-66
2023/05/04 08:56:44;;;;;;;7.60;3.78;;;13.60;99.90;;;;;;4954318;28;20053;-65
2023/05/04 08:59:20;;;;;;;10.30;4.72;;;13.70;99.90;;;;;;4984579;28;20070;-66
2023/05/04 09:01:55;;;;;;;10.07;4.50;;;13.60;99.90;;;;;;4952291;28;20129;-66
2023/05/04 09:04:21;;;;;;;10.35;4.57;;;13.70;99.90;;;;;;4980517;28;20452;-65
2023/05/04 09:06:47;;;;;;;9.23;4.20;;;13.80;99.90;;;;;;4940223;28;20042;-66
2023/05/04 09:09:13;;;;;;;9.13;4.78;;;13.80;99.90;;;;;;4952099;28;20424;-66
2023/05/04 09:11:39;;;;;;;9.45;3.45;;;13.90;99.90;;;;;;4952182;28;20346;-66
2023/05/04 09:14:05;;;;;;;7.60;3.92;;;14.00;99.90;;;;;;4986476;28;20076;-65
2023/05/04 09:16:38;;;;;;;10.20;4.47;;;14.00;99.90;;;;;;4970040;28;20046;-65
2023/05/04 09:19:15;;;;;;;11.83;3.77;;;14.30;99.90;;;;;;4954291;28;20593;-66
2023/05/04 09:21:42;;;;;;;7.95;3.63;;;14.60;99.90;;;;;;4938233;28;20305;-65
2023/05/04 09:24:07;;;;;;;6.70;4.07;;;14.90;99.90;;;;;;4937723;28;20046;-65
2023/05/04 09:26:33;;;;;;;8.68;4.00;;;14.90;99.90;;;;;;4969285;28;20325;-66
2023/05/04 09:29:12;;;;;;;9.48;3.63;;;15.10;99.90;;;;;;4951735;28;20050;-65
2023/05/04 09:31:49;;;;;;;8.00;3.28;;;15.30;99.90;;;;;;4957587;28;20042;-65
2023/05/04 09:34:15;;;;;;;9.57;3.40;;;15.40;99.90;;;;;;4952798;28;20255;-66
2023/05/04 09:36:41;;;;;;;7.93;2.67;;;15.70;99.90;;;;;;4937753;28;20089;-64
2023/05/04 09:39:14;;;;;;;8.88;3.30;;;15.70;99.90;;;;;;4954522;28;20046;-66
2023/05/04 09:41:41;;;;;;;6.10;2.42;;;15.70;99.90;;;;;;4969641;28;20109;-65
2023/05/04 09:44:22;;;;;;;7.45;2.67;;;15.80;99.90;;;;;;4986998;28;20260;-66
2023/05/04 09:47:08;;;;;;;8.18;3.55;;;15.70;99.90;;;;;;4922685;28;20122;-65
2023/05/04 09:49:36;;;;;;;10.05;3.67;;;15.70;99.90;;;;;;4952619;28;20588;-65
2023/05/04 09:52:03;;;;;;;5.60;2.92;;;15.60;99.90;;;;;;4955349;28;20078;-68
2023/05/04 09:54:33;;;;;;;6.82;2.83;;;16.10;99.90;;;;;;4935917;28;20035;-66
2023/05/04 09:57:15;;;;;;;7.25;3.10;;;16.30;99.90;;;;;;4953356;28;20330;-65
2023/05/04 09:59:42;;;;;;;5.93;2.10;;;16.60;99.90;;;;;;4980369;28;20046;-66
2023/05/04 10:02:10;;;;;;;5.85;2.92;;;16.70;99.90;;;;;;4957925;28;20566;-66
2023/05/04 10:04:36;;;;;;;7.05;2.97;;;16.80;99.90;;;;;;4988953;28;20097;-66
2023/05/04 10:07:03;;;;;;;4.95;2.38;;;17.00;99.90;;;;;;4958462;28;20617;-65
2023/05/04 10:09:31;;;;;;;8.18;2.92;;;17.20;99.90;;;;;;4941897;28;20050;-67
2023/05/04 10:12:04;;;;;;;7.30;2.90;;;17.30;99.90;;;;;;4973351;28;20431;-67
2023/05/04 10:14:34;;;;;;;6.53;3.10;;;17.50;99.90;;;;;;4973343;28;20618;-66
2023/05/04 10:17:37;;;;;;;10.57;3.53;;;17.40;99.90;;;;;;4972504;28;20069;-68
2023/05/04 10:20:15;;;;;;;7.50;2.80;;;17.20;99.90;;;;;;4956567;28;20138;-68
2023/05/04 10:23:06;;;;;;;6.78;2.95;;;17.30;99.90;;;;;;4956670;28;20050;-66
2023/05/04 10:25:53;;;;;;;5.75;2.60;;;17.60;99.90;;;;;;4971378;28;20719;-66
2023/05/04 10:28:38;;;;;;;6.30;3.20;;;17.60;99.90;;;;;;4921942;28;20050;-67
2023/05/04 10:31:06;;;;;;;12.18;4.18;;;17.80;99.90;;;;;;4957033;28;20086;-66
2023/05/04 10:33:42;;;;;;;7.38;3.10;;;17.70;99.90;;;;;;4989725;28;20039;-66
2023/05/04 10:36:09;;;;;;;6.72;3.35;;;17.70;99.90;;;;;;4957571;28;20039;-67
2023/05/04 10:38:36;;;;;;;6.45;2.70;;;18.00;99.90;;;;;;4956550;28;20046;-66
2023/05/04 10:41:17;;;;;;;5.47;2.67;;;18.20;99.90;;;;;;4988698;28;20050;-67
2023/05/04 10:43:47;;;;;;;8.38;2.63;;;18.40;99.90;;;;;;4956620;28;20121;-66
2023/05/04 10:46:20;;;;;;;5.20;2.17;;;18.90;99.90;;;;;;4958277;28;20042;-67
2023/05/04 10:48:46;;;;;;;;;;;19.20;97.50;;;;;;4957436;28;20568;-66
2023/05/04 10:51:21;;;;;;;8.02;2.20;;;19.00;95.70;;;;;;4985634;28;19933;-67
2023/05/04 10:53:47;;;;;;;7.53;2.40;;;19.10;76.50;;;;;;4971835;28;20043;-66
2023/05/04 10:56:24;;;;;;;5.75;2.50;;;19.10;91.80;;;;;;4987279;28;20711;-64
2023/05/04 10:58:50;;;;;;;5.78;2.75;;;18.90;65.60;;;;;;4972537;28;20263;-65
2023/05/04 11:01:17;;;;;;;5.72;2.22;;;18.60;79.60;;;;;;4987809;28;20050;-66
2023/05/04 11:03:43;;;;;;;6.07;2.42;;;18.50;84.90;;;;;;4954811;28;20047;-66
2023/05/04 11:06:18;;;;;;;4.95;2.40;;;18.60;66.90;;;;;;4939182;28;20042;-67
2023/05/04 11:08:58;;;;;;;5.13;2.17;;;18.80;82.90;;;;;;4954771;28;20656;-65
2023/05/04 11:11:23;;;;;;;11.35;2.88;;;19.10;70.10;;;;;;4988279;28;20112;-66
2023/05/04 11:13:51;;;;;;;6.60;2.50;;;18.80;58.50;;;;;;4936377;28;20054;-67
2023/05/04 11:16:24;;;;;;;6.07;2.08;;;19.10;66.60;;;;;;4989124;28;20042;-66
2023/05/04 11:18:50;;;;;;;6.15;2.63;;;19.50;59.10;;;;;;4955950;28;20057;-65
2023/05/04 11:21:28;;;;;;;6.38;2.53;;;19.30;78.30;;;;;;4955647;28;20409;-63
2023/05/04 11:23:57;;;;;;;7.43;2.47;;;19.20;52.60;;;;;;4955805;28;20042;-65
2023/05/04 11:26:24;;;;;;;7.68;2.55;;;19.40;62.00;;;;;;4969651;28;20055;-67
2023/05/04 11:28:49;;;;;;;7.55;2.60;;;19.60;55.40;;;;;;4971416;28;20130;-67
2023/05/04 11:31:20;;;;;;;7.00;2.95;;;19.80;53.80;;;;;;4986693;28;20051;-65
2023/05/04 11:33:51;;;;;;;9.10;2.95;;;20.00;47.20;;;;;;5001762;28;20510;-65
2023/05/04 11:36:18;;;;;;;5.68;2.60;;;19.90;58.30;;;;;;4968752;28;20046;-66
2023/05/04 11:38:46;;;;;;;5.57;2.47;;;20.00;44.10;;;;;;4970318;28;20042;-65
2023/05/04 11:41:12;;;;;;;6.75;2.58;;;19.80;30.20;;;;;;4986329;28;20042;-67
2023/05/04 11:43:41;;;;;;;5.88;2.72;;;19.60;45.20;;;;;;4985972;28;20404;-66
2023/05/04 11:46:07;;;;;;;13.30;3.22;;;19.80;51.10;;;;;;4986378;28;20035;-65
2023/05/04 11:48:34;;;;;;;6.15;2.67;;;19.90;69.00;;;;;;4968619;28;20058;-66
2023/05/04 11:51:01;;;;;;;6.93;2.35;;;20.00;54.80;;;;;;4970213;28;20054;-66
2023/05/04 11:53:39;;;;;;;6.38;2.88;;;20.10;45.20;;;;;;4969658;28;20532;-66
2023/05/04 11:56:07;;;;;;;6.38;3.15;;;20.00;30.60;;;;;;5001358;28;20315;-66
2023/05/04 11:58:33;;;;;;;5.00;2.88;;;19.90;29.00;;;;;;4985247;28;20480;-67
2023/05/04 12:00:59;;;;;;;7.13;3.15;;;19.60;36.80;;;;;;4947198;28;20189;-66
2023/05/04 12:03:27;;;;;;;7.32;3.00;;;19.20;45.00;;;;;;4971036;28;20046;-67
2023/05/04 12:05:55;;;;;;;7.05;3.10;;;19.30;65.50;;;;;;4970065;28;20089;-69
2023/05/04 12:08:30;;;;;;;4.97;2.47;;;19.40;67.70;;;;;;4953168;28;20047;-65
2023/05/04 12:11:13;;;;;;;7.13;2.53;;;19.60;43.90;;;;;;4969946;28;20134;-65
2023/05/04 12:13:39;;;;;;;4.78;2.42;;;19.70;48.00;;;;;;4983315;28;20315;-66
2023/05/04 12:16:09;;;;;;;7.20;2.70;;;19.70;41.00;;;;;;4982562;28;20832;-66
2023/05/04 12:18:36;;;;;;;6.60;3.08;;;19.80;50.90;;;;;;4953143;28;20073;-65
2023/05/04 12:21:11;;;;;;;4.95;2.50;;;19.80;41.50;;;;;;4954277;28;20138;-66
2023/05/04 12:23:38;;;;;;;7.75;2.67;;;19.90;31.90;;;;;;4982869;28;20792;-67
2023/05/04 12:26:04;;;;;;;7.00;3.00;;;19.80;32.10;;;;;;4983115;28;20042;-66
2023/05/04 12:28:30;;;;;;;5.40;2.55;;;19.80;40.20;;;;;;4966973;28;20687;-65
2023/05/04 12:38:30;;;;;;;7.05;2.65;;;20.40;47.60;;;;;;4948675;28;20378;-66
2023/05/04 12:41:01;;;;;;;5.70;2.50;;;20.60;46.10;;;;;;4885750;28;20357;-67
2023/05/04 12:43:27;;;;;;;5.28;2.45;;;20.70;26.70;;;;;;4941249;28;20345;-66
2023/05/04 12:45:53;;;;;;;4.85;2.30;;;20.80;26.30;;;;;;4954752;28;20046;-65
2023/05/04 12:48:19;;;;;;;5.55;3.00;;;21.00;12.40;;;;;;4953962;28;20053;-64
2023/05/04 12:50:47;;;;;;;8.43;3.13;;;20.80;12.80;;;;;;4972631;28;20045;-66
2023/05/04 12:53:13;;;;;;;5.45;2.90;;;20.70;18.20;;;;;;4970901;28;20058;-65
2023/05/04 12:55:39;;;;;;;5.45;2.20;;;20.70;12.80;;;;;;4973141;28;20043;-66
2023/05/04 12:58:06;;;;;;;9.23;2.55;;;20.70;2.50;;;;;;4954599;28;20520;-66
2023/05/04 13:00:36;;;;;;;6.22;2.30;;;20.60;5.50;;;;;;4938183;28;20051;-65